sensor_id;sensor_type;location;lat;lon;timestamp;temperature;humidity
23405;DHT22;11875;49.356;2.718;2022-11-15T00:02:08;13.00;99.90
23405;DHT22;11875;49.356;2.718;2022-11-15T00:04:33;12.90;99.90
23405;DHT22;11875;49.356;2.718;2022-11-15T00:06:59;13.00;99.90
23405;DHT22;11875;49.356;2.718;2022-11-15T00:09:24;13.00;99.90
23405;DHT22;11875;49.356;2.718;2022-11-15T00:11:51;12.90;99.90
23405;DHT22;11875;49.356;2.718;2022-11-15T00:14:17;12.90;99.90
23405;DHT22;11875;49.356;2.718;2022-11-15T00:16:43;12.90;99.90
23405;DHT22;11875;49.356;2.718;2022-11-15T00:19:09;12.90;99.90
23405;DHT22;11875;49.356;2.718;2022-11-15T00:21:34;12.80;99.90
23405;DHT22;11875;49.356;2.718;2022-11-15T00:24:00;12.70;99.90
23405;DHT22;11875;49.356;2.718;2022-11-15T00:26:26;12.80;99.90
23405;DHT22;11875;49.356;2.718;2022-11-15T00:28:52;12.80;99.90
23405;DHT22;11875;49.356;2.718;2022-11-15T00:31:18;12.80;99.90
23405;DHT22;11875;49.356;2.718;2022-11-15T00:33:44;12.80;99.90
23405;DHT22;11875;49.356;2.718;2022-11-15T00:36:10;12.90;99.90
23405;DHT22;11875;49.356;2.718;2022-11-15T00:38:38;12.80;99.90
23405;DHT22;11875;49.356;2.718;2022-11-15T00:41:05;12.70;99.90
23405;DHT22;11875;49.356;2.718;2022-11-15T00:43:31;12.60;99.90
23405;DHT22;11875;49.356;2.718;2022-11-15T00:45:57;12.60;99.90
23405;DHT22;11875;49.356;2.718;2022-11-15T00:48:22;12.60;99.90
23405;DHT22;11875;49.356;2.718;2022-11-15T00:50:49;12.50;99.90
23405;DHT22;11875;49.356;2.718;2022-11-15T00:53:15;12.40;99.90
23405;DHT22;11875;49.356;2.718;2022-11-15T00:55:41;12.50;99.90
23405;DHT22;11875;49.356;2.718;2022-11-15T00:58:07;12.40;99.90
23405;DHT22;11875;49.356;2.718;2022-11-15T01:00:32;12.40;99.90
23405;DHT22;11875;49.356;2.718;2022-11-15T01:03:00;12.40;99.90
23405;DHT22;11875;49.356;2.718;2022-11-15T01:05:25;12.40;99.90
23405;DHT22;11875;49.356;2.718;2022-11-15T01:07:52;12.40;99.90
23405;DHT22;11875;49.356;2.718;2022-11-15T01:10:18;12.30;99.90
23405;DHT22;11875;49.356;2.718;2022-11-15T01:12:43;12.20;99.90
23405;DHT22;11875;49.356;2.718;2022-11-15T01:15:09;12.10;99.90
23405;DHT22;11875;49.356;2.718;2022-11-15T01:17:34;12.10;99.90
23405;DHT22;11875;49.356;2.718;2022-11-15T01:20:00;11.80;99.90
23405;DHT22;11875;49.356;2.718;2022-11-15T01:22:26;11.70;99.90
23405;DHT22;11875;49.356;2.718;2022-11-15T01:24:52;11.60;99.90
23405;DHT22;11875;49.356;2.718;2022-11-15T01:27:17;11.60;99.90
23405;DHT22;11875;49.356;2.718;2022-11-15T01:29:43;11.50;99.90
23405;DHT22;11875;49.356;2.718;2022-11-15T01:32:09;11.50;99.90
23405;DHT22;11875;49.356;2.718;2022-11-15T01:34:34;11.50;99.90
23405;DHT22;11875;49.356;2.718;2022-11-15T01:37:00;11.50;99.90
23405;DHT22;11875;49.356;2.718;2022-11-15T01:39:26;11.60;99.90
23405;DHT22;11875;49.356;2.718;2022-11-15T01:41:52;11.60;99.90
23405;DHT22;11875;49.356;2.718;2022-11-15T01:44:38;11.60;99.90
23405;DHT22;11875;49.356;2.718;2022-11-15T01:47:20;11.50;99.90
23405;DHT22;11875;49.356;2.718;2022-11-15T01:49:57;11.20;99.90
23405;DHT22;11875;49.356;2.718;2022-11-15T01:52:25;11.20;99.90
23405;DHT22;11875;49.356;2.718;2022-11-15T01:57:24;11.10;99.90
23405;DHT22;11875;49.356;2.718;2022-11-15T01:59:49;11.10;99.90
23405;DHT22;11875;49.356;2.718;2022-11-15T02:02:15;11.10;99.90
23405;DHT22;11875;49.356;2.718;2022-11-15T02:04:47;11.10;99.90
23405;DHT22;11875;49.356;2.718;2022-11-15T02:07:17;11.10;99.90
23405;DHT22;11875;49.356;2.718;2022-11-15T02:09:44;11.00;99.90
23405;DHT22;11875;49.356;2.718;2022-11-15T02:12:10;11.00;99.90
23405;DHT22;11875;49.356;2.718;2022-11-15T02:14:40;11.10;99.90
23405;DHT22;11875;49.356;2.718;2022-11-15T02:22:57;11.00;99.90
23405;DHT22;11875;49.356;2.718;2022-11-15T02:31:11;11.10;99.90
23405;DHT22;11875;49.356;2.718;2022-11-15T02:39:10;10.90;99.90
23405;DHT22;11875;49.356;2.718;2022-11-15T02:41:46;10.90;99.90
23405;DHT22;11875;49.356;2.718;2022-11-15T02:44:23;10.80;99.90
23405;DHT22;11875;49.356;2.718;2022-11-15T02:47:00;10.60;99.90
23405;DHT22;11875;49.356;2.718;2022-11-15T02:49:51;10.40;99.90
23405;DHT22;11875;49.356;2.718;2022-11-15T02:52:20;10.40;99.90
23405;DHT22;11875;49.356;2.718;2022-11-15T02:54:56;10.30;99.90
23405;DHT22;11875;49.356;2.718;2022-11-15T02:57:52;10.20;99.90
23405;DHT22;11875;49.356;2.718;2022-11-15T03:00:21;10.10;99.90
23405;DHT22;11875;49.356;2.718;2022-11-15T03:08:32;9.80;99.90
23405;DHT22;11875;49.356;2.718;2022-11-15T03:11:15;9.70;99.90
23405;DHT22;11875;49.356;2.718;2022-11-15T03:16:20;9.60;99.90
23405;DHT22;11875;49.356;2.718;2022-11-15T03:18:55;9.40;99.90
23405;DHT22;11875;49.356;2.718;2022-11-15T03:21:23;9.60;99.90
23405;DHT22;11875;49.356;2.718;2022-11-15T03:23:51;9.60;99.90
23405;DHT22;11875;49.356;2.718;2022-11-15T03:26:20;9.50;99.90
23405;DHT22;11875;49.356;2.718;2022-11-15T03:29:03;9.40;99.90
23405;DHT22;11875;49.356;2.718;2022-11-15T03:31:33;9.40;99.90
23405;DHT22;11875;49.356;2.718;2022-11-15T03:34:29;9.40;99.90
23405;DHT22;11875;49.356;2.718;2022-11-15T03:36:56;9.40;99.90
23405;DHT22;11875;49.356;2.718;2022-11-15T03:39:23;9.20;99.90
23405;DHT22;11875;49.356;2.718;2022-11-15T03:42:16;9.20;99.90
23405;DHT22;11875;49.356;2.718;2022-11-15T03:44:51;9.20;99.90
23405;DHT22;11875;49.356;2.718;2022-11-15T03:47:40;9.20;99.90
23405;DHT22;11875;49.356;2.718;2022-11-15T03:50:12;9.20;99.90
23405;DHT22;11875;49.356;2.718;2022-11-15T03:52:39;9.20;99.90
23405;DHT22;11875;49.356;2.718;2022-11-15T03:55:08;9.20;99.90
23405;DHT22;11875;49.356;2.718;2022-11-15T03:57:34;9.20;99.90
23405;DHT22;11875;49.356;2.718;2022-11-15T03:59:59;9.10;99.90
23405;DHT22;11875;49.356;2.718;2022-11-15T04:02:25;9.00;99.90
23405;DHT22;11875;49.356;2.718;2022-11-15T04:04:51;9.00;99.90
23405;DHT22;11875;49.356;2.718;2022-11-15T04:07:16;8.90;99.90
23405;DHT22;11875;49.356;2.718;2022-11-15T04:09:42;8.90;99.90
23405;DHT22;11875;49.356;2.718;2022-11-15T04:12:26;8.90;99.90
23405;DHT22;11875;49.356;2.718;2022-11-15T04:17:55;8.90;99.90
23405;DHT22;11875;49.356;2.718;2022-11-15T04:20:23;8.90;99.90
23405;DHT22;11875;49.356;2.718;2022-11-15T04:23:20;9.00;99.90
23405;DHT22;11875;49.356;2.718;2022-11-15T04:26:15;9.00;99.90
23405;DHT22;11875;49.356;2.718;2022-11-15T04:28:41;9.00;99.90
23405;DHT22;11875;49.356;2.718;2022-11-15T04:31:26;8.90;99.90
23405;DHT22;11875;49.356;2.718;2022-11-15T04:33:52;9.00;99.90
23405;DHT22;11875;49.356;2.718;2022-11-15T04:36:19;9.00;99.90
23405;DHT22;11875;49.356;2.718;2022-11-15T04:39:03;9.20;99.90
23405;DHT22;11875;49.356;2.718;2022-11-15T04:41:29;9.20;99.90
23405;DHT22;11875;49.356;2.718;2022-11-15T04:43:55;9.20;99.90
23405;DHT22;11875;49.356;2.718;2022-11-15T04:46:21;9.20;99.90
23405;DHT22;11875;49.356;2.718;2022-11-15T04:48:46;9.20;99.90
23405;DHT22;11875;49.356;2.718;2022-11-15T04:51:12;9.10;99.90
23405;DHT22;11875;49.356;2.718;2022-11-15T04:53:38;9.00;99.90
23405;DHT22;11875;49.356;2.718;2022-11-15T04:56:03;9.20;99.90
23405;DHT22;11875;49.356;2.718;2022-11-15T04:58:29;9.00;99.90
23405;DHT22;11875;49.356;2.718;2022-11-15T05:00:54;9.30;99.90
23405;DHT22;11875;49.356;2.718;2022-11-15T05:03:20;9.20;99.90
23405;DHT22;11875;49.356;2.718;2022-11-15T05:06:05;9.10;99.90
23405;DHT22;11875;49.356;2.718;2022-11-15T05:08:31;9.00;99.90
23405;DHT22;11875;49.356;2.718;2022-11-15T05:10:56;9.10;99.90
23405;DHT22;11875;49.356;2.718;2022-11-15T05:13:22;9.00;99.90
23405;DHT22;11875;49.356;2.718;2022-11-15T05:15:47;8.80;99.90
23405;DHT22;11875;49.356;2.718;2022-11-15T05:18:13;8.80;99.90
23405;DHT22;11875;49.356;2.718;2022-11-15T05:20:39;8.70;99.90
23405;DHT22;11875;49.356;2.718;2022-11-15T05:23:04;8.60;99.90
23405;DHT22;11875;49.356;2.718;2022-11-15T05:25:30;8.50;99.90
23405;DHT22;11875;49.356;2.718;2022-11-15T05:27:56;8.60;99.90
23405;DHT22;11875;49.356;2.718;2022-11-15T05:30:21;8.60;99.90
23405;DHT22;11875;49.356;2.718;2022-11-15T05:32:47;8.70;99.90
23405;DHT22;11875;49.356;2.718;2022-11-15T05:35:33;8.60;99.90
23405;DHT22;11875;49.356;2.718;2022-11-15T05:37:59;8.60;99.90
23405;DHT22;11875;49.356;2.718;2022-11-15T05:40:26;8.60;99.90
23405;DHT22;11875;49.356;2.718;2022-11-15T05:42:52;8.50;99.90
23405;DHT22;11875;49.356;2.718;2022-11-15T05:45:17;8.40;99.90
23405;DHT22;11875;49.356;2.718;2022-11-15T05:47:44;8.50;99.90
23405;DHT22;11875;49.356;2.718;2022-11-15T05:50:15;8.50;99.90
23405;DHT22;11875;49.356;2.718;2022-11-15T05:52:41;8.40;99.90
23405;DHT22;11875;49.356;2.718;2022-11-15T05:55:09;8.30;99.90
23405;DHT22;11875;49.356;2.718;2022-11-15T05:57:35;8.30;99.90
23405;DHT22;11875;49.356;2.718;2022-11-15T06:00:01;8.30;99.90
23405;DHT22;11875;49.356;2.718;2022-11-15T06:02:27;8.30;99.90
23405;DHT22;11875;49.356;2.718;2022-11-15T06:04:53;8.40;99.90
23405;DHT22;11875;49.356;2.718;2022-11-15T06:07:19;8.40;99.90
23405;DHT22;11875;49.356;2.718;2022-11-15T06:09:44;8.40;99.90
23405;DHT22;11875;49.356;2.718;2022-11-15T06:12:10;8.40;99.90
23405;DHT22;11875;49.356;2.718;2022-11-15T06:14:35;8.40;99.90
23405;DHT22;11875;49.356;2.718;2022-11-15T06:17:01;8.50;99.90
23405;DHT22;11875;49.356;2.718;2022-11-15T06:19:27;8.40;99.90
23405;DHT22;11875;49.356;2.718;2022-11-15T06:21:53;8.40;99.90
23405;DHT22;11875;49.356;2.718;2022-11-15T06:24:18;8.40;99.90
23405;DHT22;11875;49.356;2.718;2022-11-15T06:26:44;8.50;99.90
23405;DHT22;11875;49.356;2.718;2022-11-15T06:29:09;8.50;99.90
23405;DHT22;11875;49.356;2.718;2022-11-15T06:31:35;8.50;99.90
23405;DHT22;11875;49.356;2.718;2022-11-15T06:34:01;8.40;99.90
23405;DHT22;11875;49.356;2.718;2022-11-15T06:36:26;8.50;99.90
23405;DHT22;11875;49.356;2.718;2022-11-15T06:38:52;8.50;99.90
23405;DHT22;11875;49.356;2.718;2022-11-15T06:41:18;8.60;99.90
23405;DHT22;11875;49.356;2.718;2022-11-15T06:43:43;8.50;99.90
23405;DHT22;11875;49.356;2.718;2022-11-15T06:46:09;8.50;99.90
23405;DHT22;11875;49.356;2.718;2022-11-15T06:48:35;8.40;99.90
23405;DHT22;11875;49.356;2.718;2022-11-15T06:51:02;8.40;99.90
23405;DHT22;11875;49.356;2.718;2022-11-15T06:53:30;8.40;99.90
23405;DHT22;11875;49.356;2.718;2022-11-15T06:56:03;8.40;99.90
23405;DHT22;11875;49.356;2.718;2022-11-15T06:58:29;8.40;99.90
23405;DHT22;11875;49.356;2.718;2022-11-15T07:01:03;8.40;99.90
23405;DHT22;11875;49.356;2.718;2022-11-15T07:03:29;8.40;99.90
23405;DHT22;11875;49.356;2.718;2022-11-15T07:05:55;8.40;99.90
23405;DHT22;11875;49.356;2.718;2022-11-15T07:08:23;8.40;99.90
23405;DHT22;11875;49.356;2.718;2022-11-15T07:10:49;8.40;99.90
23405;DHT22;11875;49.356;2.718;2022-11-15T07:13:15;8.50;99.90
23405;DHT22;11875;49.356;2.718;2022-11-15T07:15:40;8.40;99.90
23405;DHT22;11875;49.356;2.718;2022-11-15T07:18:06;8.50;99.90
23405;DHT22;11875;49.356;2.718;2022-11-15T07:20:31;8.50;99.90
23405;DHT22;11875;49.356;2.718;2022-11-15T07:23:01;8.50;99.90
23405;DHT22;11875;49.356;2.718;2022-11-15T07:25:27;8.50;99.90
23405;DHT22;11875;49.356;2.718;2022-11-15T07:28:00;8.60;99.90
23405;DHT22;11875;49.356;2.718;2022-11-15T07:30:26;8.50;99.90
23405;DHT22;11875;49.356;2.718;2022-11-15T07:32:57;8.50;99.90
23405;DHT22;11875;49.356;2.718;2022-11-15T07:35:24;8.50;99.90
23405;DHT22;11875;49.356;2.718;2022-11-15T07:38:00;8.50;99.90
23405;DHT22;11875;49.356;2.718;2022-11-15T07:40:27;8.60;99.90
23405;DHT22;11875;49.356;2.718;2022-11-15T07:43:02;8.60;99.90
23405;DHT22;11875;49.356;2.718;2022-11-15T07:45:28;8.70;99.90
23405;DHT22;11875;49.356;2.718;2022-11-15T07:47:54;8.90;99.90
23405;DHT22;11875;49.356;2.718;2022-11-15T07:50:21;9.00;99.90
23405;DHT22;11875;49.356;2.718;2022-11-15T07:52:47;9.10;99.90
23405;DHT22;11875;49.356;2.718;2022-11-15T07:55:13;9.10;99.90
23405;DHT22;11875;49.356;2.718;2022-11-15T07:57:38;9.20;99.90
23405;DHT22;11875;49.356;2.718;2022-11-15T08:00:05;9.20;99.90
23405;DHT22;11875;49.356;2.718;2022-11-15T08:02:31;9.30;99.90
23405;DHT22;11875;49.356;2.718;2022-11-15T08:04:57;9.30;99.90
23405;DHT22;11875;49.356;2.718;2022-11-15T08:07:22;9.40;99.90
23405;DHT22;11875;49.356;2.718;2022-11-15T08:09:48;9.40;99.90
23405;DHT22;11875;49.356;2.718;2022-11-15T08:12:14;9.50;99.90
23405;DHT22;11875;49.356;2.718;2022-11-15T08:14:40;9.50;99.90
23405;DHT22;11875;49.356;2.718;2022-11-15T08:17:05;9.50;99.90
23405;DHT22;11875;49.356;2.718;2022-11-15T08:19:31;9.50;99.90
23405;DHT22;11875;49.356;2.718;2022-11-15T08:21:56;9.50;99.90
23405;DHT22;11875;49.356;2.718;2022-11-15T08:24:22;9.50;99.90
23405;DHT22;11875;49.356;2.718;2022-11-15T08:26:47;9.60;99.90
23405;DHT22;11875;49.356;2.718;2022-11-15T08:29:13;9.50;99.90
23405;DHT22;11875;49.356;2.718;2022-11-15T08:31:39;9.60;99.90
23405;DHT22;11875;49.356;2.718;2022-11-15T08:34:05;9.80;99.90
23405;DHT22;11875;49.356;2.718;2022-11-15T08:36:31;9.90;99.90
23405;DHT22;11875;49.356;2.718;2022-11-15T08:38:57;10.00;99.90
23405;DHT22;11875;49.356;2.718;2022-11-15T08:41:34;10.10;99.90
23405;DHT22;11875;49.356;2.718;2022-11-15T08:44:01;10.00;99.90
23405;DHT22;11875;49.356;2.718;2022-11-15T08:46:27;10.00;99.90
23405;DHT22;11875;49.356;2.718;2022-11-15T08:48:52;10.00;99.90
23405;DHT22;11875;49.356;2.718;2022-11-15T08:51:18;10.10;99.90
23405;DHT22;11875;49.356;2.718;2022-11-15T08:53:43;10.20;99.90
23405;DHT22;11875;49.356;2.718;2022-11-15T08:56:11;10.20;99.90
23405;DHT22;11875;49.356;2.718;2022-11-15T08:58:37;10.30;99.90
23405;DHT22;11875;49.356;2.718;2022-11-15T09:01:03;10.30;99.90
23405;DHT22;11875;49.356;2.718;2022-11-15T09:03:29;10.30;99.90
23405;DHT22;11875;49.356;2.718;2022-11-15T09:05:56;10.30;99.90
23405;DHT22;11875;49.356;2.718;2022-11-15T09:08:22;10.40;99.90
23405;DHT22;11875;49.356;2.718;2022-11-15T09:10:48;10.50;99.90
23405;DHT22;11875;49.356;2.718;2022-11-15T09:13:14;10.50;99.90
23405;DHT22;11875;49.356;2.718;2022-11-15T09:15:39;10.50;99.90
23405;DHT22;11875;49.356;2.718;2022-11-15T09:18:05;10.50;99.90
23405;DHT22;11875;49.356;2.718;2022-11-15T09:20:30;10.60;99.90
23405;DHT22;11875;49.356;2.718;2022-11-15T09:23:04;10.70;99.90
23405;DHT22;11875;49.356;2.718;2022-11-15T09:25:30;10.90;99.90
23405;DHT22;11875;49.356;2.718;2022-11-15T09:27:56;11.20;99.90
23405;DHT22;11875;49.356;2.718;2022-11-15T09:30:23;11.20;99.90
23405;DHT22;11875;49.356;2.718;2022-11-15T09:32:48;11.30;99.90
23405;DHT22;11875;49.356;2.718;2022-11-15T09:35:14;11.30;99.90
23405;DHT22;11875;49.356;2.718;2022-11-15T09:37:40;11.30;99.90
23405;DHT22;11875;49.356;2.718;2022-11-15T09:40:12;11.20;99.90
23405;DHT22;11875;49.356;2.718;2022-11-15T09:50:48;11.30;99.90
23405;DHT22;11875;49.356;2.718;2022-11-15T09:56:00;11.40;99.90
23405;DHT22;11875;49.356;2.718;2022-11-15T09:58:36;11.40;99.90
23405;DHT22;11875;49.356;2.718;2022-11-15T10:01:12;11.50;99.90
23405;DHT22;11875;49.356;2.718;2022-11-15T10:03:40;11.40;99.90
23405;DHT22;11875;49.356;2.718;2022-11-15T10:06:23;11.50;99.90
23405;DHT22;11875;49.356;2.718;2022-11-15T10:11:22;11.50;99.90
23405;DHT22;11875;49.356;2.718;2022-11-15T10:13:50;11.60;99.90
23405;DHT22;11875;49.356;2.718;2022-11-15T10:16:24;11.60;99.90
23405;DHT22;11875;49.356;2.718;2022-11-15T10:21:37;11.60;99.90
23405;DHT22;11875;49.356;2.718;2022-11-15T10:24:13;11.60;99.90
23405;DHT22;11875;49.356;2.718;2022-11-15T10:26:46;11.60;99.90
23405;DHT22;11875;49.356;2.718;2022-11-15T10:29:20;11.60;99.90
23405;DHT22;11875;49.356;2.718;2022-11-15T10:31:46;11.70;99.90
23405;DHT22;11875;49.356;2.718;2022-11-15T10:36:47;11.80;99.90
23405;DHT22;11875;49.356;2.718;2022-11-15T10:39:19;11.90;99.90
23405;DHT22;11875;49.356;2.718;2022-11-15T10:41:44;11.90;99.90
23405;DHT22;11875;49.356;2.718;2022-11-15T10:46:43;12.00;99.90
23405;DHT22;11875;49.356;2.718;2022-11-15T10:49:19;12.00;99.90
23405;DHT22;11875;49.356;2.718;2022-11-15T10:51:56;12.00;99.90
23405;DHT22;11875;49.356;2.718;2022-11-15T10:54:41;12.10;99.90
23405;DHT22;11875;49.356;2.718;2022-11-15T10:57:18;12.10;99.90
23405;DHT22;11875;49.356;2.718;2022-11-15T10:59:49;12.10;99.90
23405;DHT22;11875;49.356;2.718;2022-11-15T11:02:38;12.10;99.90
23405;DHT22;11875;49.356;2.718;2022-11-15T11:05:24;12.10;99.90
23405;DHT22;11875;49.356;2.718;2022-11-15T11:08:00;12.10;99.90
23405;DHT22;11875;49.356;2.718;2022-11-15T11:10:27;12.10;99.90
23405;DHT22;11875;49.356;2.718;2022-11-15T11:12:53;12.10;99.90
23405;DHT22;11875;49.356;2.718;2022-11-15T11:15:18;12.10;99.90
23405;DHT22;11875;49.356;2.718;2022-11-15T11:20:25;12.00;99.90
23405;DHT22;11875;49.356;2.718;2022-11-15T11:23:20;12.00;99.90
23405;DHT22;11875;49.356;2.718;2022-11-15T11:28:42;11.90;99.90
23405;DHT22;11875;49.356;2.718;2022-11-15T11:34:50;11.90;99.90
23405;DHT22;11875;49.356;2.718;2022-11-15T11:48:48;11.90;99.90
23405;DHT22;11875;49.356;2.718;2022-11-15T11:56:39;12.00;99.90
23405;DHT22;11875;49.356;2.718;2022-11-15T12:01:49;12.00;99.90
23405;DHT22;11875;49.356;2.718;2022-11-15T12:04:35;12.00;99.90
23405;DHT22;11875;49.356;2.718;2022-11-15T12:09:52;12.10;99.90
23405;DHT22;11875;49.356;2.718;2022-11-15T12:15:15;12.00;99.90
23405;DHT22;11875;49.356;2.718;2022-11-15T12:17:41;12.00;99.90
23405;DHT22;11875;49.356;2.718;2022-11-15T12:20:25;12.00;99.90
23405;DHT22;11875;49.356;2.718;2022-11-15T12:25:39;11.90;99.90
23405;DHT22;11875;49.356;2.718;2022-11-15T12:28:17;12.00;99.90
23405;DHT22;11875;49.356;2.718;2022-11-15T12:30:49;12.00;99.90
23405;DHT22;11875;49.356;2.718;2022-11-15T12:33:45;12.00;99.90
23405;DHT22;11875;49.356;2.718;2022-11-15T12:39:04;11.90;99.90
23405;DHT22;11875;49.356;2.718;2022-11-15T12:41:35;11.90;99.90
23405;DHT22;11875;49.356;2.718;2022-11-15T12:44:04;12.00;99.90
23405;DHT22;11875;49.356;2.718;2022-11-15T12:49:42;12.00;99.90
23405;DHT22;11875;49.356;2.718;2022-11-15T12:52:08;12.00;99.90
23405;DHT22;11875;49.356;2.718;2022-11-15T13:05:25;12.00;99.90
23405;DHT22;11875;49.356;2.718;2022-11-15T13:17:49;12.10;99.90
23405;DHT22;11875;49.356;2.718;2022-11-15T13:22:46;12.10;99.90
23405;DHT22;11875;49.356;2.718;2022-11-15T13:31:02;12.20;99.90
23405;DHT22;11875;49.356;2.718;2022-11-15T13:33:37;12.20;99.90
23405;DHT22;11875;49.356;2.718;2022-11-15T13:36:08;12.30;99.90
23405;DHT22;11875;49.356;2.718;2022-11-15T13:38:38;12.20;99.90
23405;DHT22;11875;49.356;2.718;2022-11-15T13:41:20;12.20;99.90
23405;DHT22;11875;49.356;2.718;2022-11-15T13:43:47;12.20;99.90
23405;DHT22;11875;49.356;2.718;2022-11-15T13:48:43;12.30;99.90
23405;DHT22;11875;49.356;2.718;2022-11-15T13:51:19;12.30;99.90
23405;DHT22;11875;49.356;2.718;2022-11-15T13:53:54;12.30;99.90
23405;DHT22;11875;49.356;2.718;2022-11-15T13:56:21;12.30;99.90
23405;DHT22;11875;49.356;2.718;2022-11-15T13:58:48;12.30;99.90
23405;DHT22;11875;49.356;2.718;2022-11-15T14:01:16;12.40;99.90
23405;DHT22;11875;49.356;2.718;2022-11-15T14:03:58;12.40;99.90
23405;DHT22;11875;49.356;2.718;2022-11-15T14:06:27;12.40;99.90
23405;DHT22;11875;49.356;2.718;2022-11-15T14:11:34;12.60;99.90
23405;DHT22;11875;49.356;2.718;2022-11-15T14:16:40;12.60;99.90
23405;DHT22;11875;49.356;2.718;2022-11-15T14:19:09;12.50;99.90
23405;DHT22;11875;49.356;2.718;2022-11-15T14:21:35;12.60;99.90
23405;DHT22;11875;49.356;2.718;2022-11-15T14:24:19;12.50;99.90
23405;DHT22;11875;49.356;2.718;2022-11-15T14:26:45;12.60;99.90
23405;DHT22;11875;49.356;2.718;2022-11-15T14:29:27;12.60;99.90
23405;DHT22;11875;49.356;2.718;2022-11-15T14:31:54;12.60;99.90
23405;DHT22;11875;49.356;2.718;2022-11-15T14:34:32;12.50;99.90
23405;DHT22;11875;49.356;2.718;2022-11-15T14:36:57;12.50;99.90
23405;DHT22;11875;49.356;2.718;2022-11-15T14:39:23;12.50;99.90
23405;DHT22;11875;49.356;2.718;2022-11-15T14:41:50;12.40;99.90
23405;DHT22;11875;49.356;2.718;2022-11-15T14:44:16;12.40;99.90
23405;DHT22;11875;49.356;2.718;2022-11-15T14:46:44;12.50;99.90
23405;DHT22;11875;49.356;2.718;2022-11-15T14:49:09;12.50;99.90
23405;DHT22;11875;49.356;2.718;2022-11-15T14:51:35;12.50;99.90
23405;DHT22;11875;49.356;2.718;2022-11-15T14:54:01;12.50;99.90
23405;DHT22;11875;49.356;2.718;2022-11-15T14:56:26;12.50;99.90
23405;DHT22;11875;49.356;2.718;2022-11-15T14:58:52;12.50;99.90
23405;DHT22;11875;49.356;2.718;2022-11-15T15:01:26;12.40;99.90
23405;DHT22;11875;49.356;2.718;2022-11-15T15:03:53;12.50;99.90
23405;DHT22;11875;49.356;2.718;2022-11-15T15:06:21;12.40;99.90
23405;DHT22;11875;49.356;2.718;2022-11-15T15:08:47;12.40;99.90
23405;DHT22;11875;49.356;2.718;2022-11-15T15:11:23;12.40;99.90
23405;DHT22;11875;49.356;2.718;2022-11-15T15:13:50;12.40;99.90
23405;DHT22;11875;49.356;2.718;2022-11-15T15:16:15;12.40;99.90
23405;DHT22;11875;49.356;2.718;2022-11-15T15:18:41;12.40;99.90
23405;DHT22;11875;49.356;2.718;2022-11-15T15:21:20;12.40;99.90
23405;DHT22;11875;49.356;2.718;2022-11-15T15:23:47;12.40;99.90
23405;DHT22;11875;49.356;2.718;2022-11-15T15:26:12;12.40;99.90
23405;DHT22;11875;49.356;2.718;2022-11-15T15:28:38;12.30;99.90
23405;DHT22;11875;49.356;2.718;2022-11-15T15:31:04;12.30;99.90
23405;DHT22;11875;49.356;2.718;2022-11-15T15:33:30;12.30;99.90
23405;DHT22;11875;49.356;2.718;2022-11-15T15:35:56;12.40;99.90
23405;DHT22;11875;49.356;2.718;2022-11-15T15:38:21;12.40;99.90
23405;DHT22;11875;49.356;2.718;2022-11-15T15:40:48;12.40;99.90
23405;DHT22;11875;49.356;2.718;2022-11-15T15:43:13;12.40;99.90
23405;DHT22;11875;49.356;2.718;2022-11-15T15:45:40;12.40;99.90
23405;DHT22;11875;49.356;2.718;2022-11-15T15:48:11;12.40;99.90
23405;DHT22;11875;49.356;2.718;2022-11-15T15:50:38;12.50;99.90
23405;DHT22;11875;49.356;2.718;2022-11-15T15:53:04;12.50;99.90
23405;DHT22;11875;49.356;2.718;2022-11-15T15:55:30;12.50;99.90
23405;DHT22;11875;49.356;2.718;2022-11-15T15:57:56;12.60;99.90
23405;DHT22;11875;49.356;2.718;2022-11-15T16:00:23;12.60;99.90
23405;DHT22;11875;49.356;2.718;2022-11-15T16:02:50;12.60;99.90
23405;DHT22;11875;49.356;2.718;2022-11-15T16:05:16;12.70;99.90
23405;DHT22;11875;49.356;2.718;2022-11-15T16:07:43;12.70;99.90
23405;DHT22;11875;49.356;2.718;2022-11-15T16:12:45;12.70;99.90
23405;DHT22;11875;49.356;2.718;2022-11-15T16:15:11;12.80;99.90
23405;DHT22;11875;49.356;2.718;2022-11-15T16:17:43;12.90;99.90
23405;DHT22;11875;49.356;2.718;2022-11-15T16:20:23;12.80;99.90
23405;DHT22;11875;49.356;2.718;2022-11-15T16:22:51;12.90;99.90
23405;DHT22;11875;49.356;2.718;2022-11-15T16:25:17;12.90;99.90
23405;DHT22;11875;49.356;2.718;2022-11-15T16:27:42;12.90;99.90
23405;DHT22;11875;49.356;2.718;2022-11-15T16:30:21;12.90;99.90
23405;DHT22;11875;49.356;2.718;2022-11-15T16:32:47;13.00;99.90
23405;DHT22;11875;49.356;2.718;2022-11-15T16:35:14;13.10;99.90
23405;DHT22;11875;49.356;2.718;2022-11-15T16:37:41;13.10;99.90
23405;DHT22;11875;49.356;2.718;2022-11-15T16:40:34;13.00;99.90
23405;DHT22;11875;49.356;2.718;2022-11-15T16:43:00;13.00;99.90
23405;DHT22;11875;49.356;2.718;2022-11-15T16:45:27;13.00;99.90
23405;DHT22;11875;49.356;2.718;2022-11-15T16:47:55;12.90;99.90
23405;DHT22;11875;49.356;2.718;2022-11-15T16:50:27;12.90;99.90
23405;DHT22;11875;49.356;2.718;2022-11-15T16:52:55;12.80;99.90
23405;DHT22;11875;49.356;2.718;2022-11-15T16:55:22;13.00;99.90
23405;DHT22;11875;49.356;2.718;2022-11-15T16:57:48;13.00;99.90
23405;DHT22;11875;49.356;2.718;2022-11-15T17:00:16;13.00;99.90
23405;DHT22;11875;49.356;2.718;2022-11-15T17:02:46;13.00;99.90
23405;DHT22;11875;49.356;2.718;2022-11-15T17:05:13;13.10;99.90
23405;DHT22;11875;49.356;2.718;2022-11-15T17:07:39;13.10;99.90
23405;DHT22;11875;49.356;2.718;2022-11-15T17:10:06;13.10;99.90
23405;DHT22;11875;49.356;2.718;2022-11-15T17:12:33;13.10;99.90
23405;DHT22;11875;49.356;2.718;2022-11-15T17:14:59;13.00;99.90
23405;DHT22;11875;49.356;2.718;2022-11-15T17:17:25;13.00;99.90
23405;DHT22;11875;49.356;2.718;2022-11-15T17:19:51;13.00;99.90
23405;DHT22;11875;49.356;2.718;2022-11-15T17:22:18;12.90;99.90
23405;DHT22;11875;49.356;2.718;2022-11-15T17:24:44;12.90;99.90
23405;DHT22;11875;49.356;2.718;2022-11-15T17:27:09;13.00;99.90
23405;DHT22;11875;49.356;2.718;2022-11-15T17:29:35;13.10;99.90
23405;DHT22;11875;49.356;2.718;2022-11-15T17:32:00;13.00;99.90
23405;DHT22;11875;49.356;2.718;2022-11-15T17:34:26;13.00;99.90
23405;DHT22;11875;49.356;2.718;2022-11-15T17:36:51;13.00;99.90
23405;DHT22;11875;49.356;2.718;2022-11-15T17:39:17;13.00;99.90
23405;DHT22;11875;49.356;2.718;2022-11-15T17:41:48;13.00;99.90
23405;DHT22;11875;49.356;2.718;2022-11-15T17:44:13;13.10;99.90
23405;DHT22;11875;49.356;2.718;2022-11-15T17:46:39;13.10;99.90
23405;DHT22;11875;49.356;2.718;2022-11-15T17:49:05;13.00;99.90
23405;DHT22;11875;49.356;2.718;2022-11-15T17:51:31;13.10;99.90
23405;DHT22;11875;49.356;2.718;2022-11-15T17:53:56;13.00;99.90
23405;DHT22;11875;49.356;2.718;2022-11-15T17:56:24;13.10;99.90
23405;DHT22;11875;49.356;2.718;2022-11-15T17:58:53;13.10;99.90
23405;DHT22;11875;49.356;2.718;2022-11-15T18:01:45;13.10;99.90